createdAt,value
2022-11-28T00:01:03.773Z,2.70
2022-11-28T00:03:50.640Z,2.50
2022-11-28T00:06:39.401Z,2.23
2022-11-28T00:09:27.620Z,2.60
2022-11-28T00:12:14.549Z,3.00
2022-11-28T00:15:01.561Z,2.50
2022-11-28T00:17:48.264Z,2.57
2022-11-28T00:20:35.449Z,2.63
2022-11-28T00:23:22.351Z,2.30
2022-11-28T00:26:14.727Z,2.07
2022-11-28T00:29:02.670Z,2.27
2022-11-28T00:31:49.429Z,2.20
2022-11-28T00:34:36.744Z,2.37
2022-11-28T00:37:23.604Z,2.20
2022-11-28T00:40:11.254Z,1.90
2022-11-28T00:42:59.159Z,1.97
2022-11-28T00:45:46.080Z,1.83
2022-11-28T00:48:33.808Z,2.10
2022-11-28T00:51:23.910Z,2.23
2022-11-28T00:54:11.614Z,1.90
2022-11-28T00:56:58.556Z,2.50
2022-11-28T00:59:46.459Z,2.60
2022-11-28T01:02:33.198Z,2.30
2022-11-28T01:05:20.007Z,2.03
2022-11-28T01:08:06.727Z,2.47
2022-11-28T01:10:53.301Z,2.20
2022-11-28T01:13:41.089Z,2.20
2022-11-28T01:16:29.787Z,2.10
2022-11-28T01:19:16.370Z,2.47
2022-11-28T01:22:03.436Z,2.23
2022-11-28T01:24:50.392Z,2.60
2022-11-28T01:27:37.320Z,2.30
2022-11-28T01:30:24.403Z,2.10
2022-11-28T01:33:12.315Z,2.03
2022-11-28T01:36:01.166Z,2.47
2022-11-28T01:38:48.634Z,2.70
2022-11-28T01:41:35.614Z,2.27
2022-11-28T01:45:06.865Z,2.50
2022-11-28T01:47:59.562Z,2.40
2022-11-28T01:50:51.705Z,2.47
2022-11-28T01:53:43.752Z,2.13
2022-11-28T01:56:40.930Z,3.07
2022-11-28T01:59:33.844Z,2.37
2022-11-28T02:02:30.666Z,2.50
2022-11-28T02:05:19.986Z,1.93
2022-11-28T02:08:10.979Z,2.57
2022-11-28T02:11:27.063Z,2.77
2022-11-28T02:14:26.947Z,2.17
2022-11-28T02:17:25.451Z,2.30
2022-11-28T02:20:59.199Z,2.40
2022-11-28T02:24:33.902Z,2.83
2022-11-28T02:28:29.608Z,2.53
2022-11-28T02:31:43.923Z,1.87
2022-11-28T02:34:47.016Z,2.20
2022-11-28T02:37:44.124Z,2.30
2022-11-28T02:40:39.866Z,2.63
2022-11-28T02:43:36.313Z,1.87
2022-11-28T02:46:32.858Z,2.60
2022-11-28T02:49:27.876Z,2.20
2022-11-28T02:52:22.265Z,2.40
2022-11-28T02:55:10.537Z,2.33
2022-11-28T02:57:57.326Z,2.67
2022-11-28T03:00:48.333Z,2.40
2022-11-28T03:04:01.200Z,2.37
2022-11-28T03:07:01.240Z,2.23
2022-11-28T03:10:23.577Z,2.23
2022-11-28T03:13:26.099Z,2.43
2022-11-28T03:16:28.190Z,2.90
2022-11-28T03:19:27.023Z,2.27
2022-11-28T03:22:27.639Z,2.27
2022-11-28T03:25:26.100Z,2.07
2022-11-28T03:28:23.780Z,2.40
2022-11-28T03:31:16.815Z,2.30
2022-11-28T03:34:09.220Z,2.60
2022-11-28T03:37:02.448Z,2.20
2022-11-28T03:39:55.064Z,2.67
2022-11-28T03:42:50.532Z,2.93
2022-11-28T03:45:45.107Z,2.87
2022-11-28T03:48:38.138Z,2.70
2022-11-28T03:51:32.039Z,2.70
2022-11-28T03:54:28.994Z,2.57
2022-11-28T03:57:24.061Z,3.13
2022-11-28T04:00:15.114Z,2.63
2022-11-28T04:03:14.974Z,3.00
2022-11-28T04:06:12.875Z,3.53
2022-11-28T04:09:12.967Z,3.10
2022-11-28T04:12:11.808Z,3.00
2022-11-28T04:15:09.707Z,3.00
2022-11-28T04:18:03.843Z,3.23
2022-11-28T04:21:00.120Z,2.90
2022-11-28T04:23:50.251Z,2.90
2022-11-28T04:26:43.131Z,3.07
2022-11-28T04:29:37.126Z,3.30
2022-11-28T04:32:27.468Z,3.20
2022-11-28T04:35:23.882Z,2.83
2022-11-28T04:38:13.817Z,3.10
2022-11-28T04:41:11.625Z,3.25
2022-11-28T04:44:10.637Z,2.90
2022-11-28T04:46:58.881Z,3.00
2022-11-28T04:49:45.862Z,2.80
2022-11-28T04:52:45.744Z,3.20
2022-11-28T04:55:41.741Z,3.20
2022-11-28T04:58:36.902Z,2.90
2022-11-28T05:01:28.890Z,2.90
2022-11-28T05:04:17.182Z,3.20
2022-11-28T05:07:05.187Z,3.20
2022-11-28T05:09:55.603Z,3.53
2022-11-28T05:12:43.807Z,3.47
2022-11-28T05:15:30.483Z,2.90
2022-11-28T05:18:17.404Z,2.70
2022-11-28T05:21:08.045Z,3.17
2022-11-28T05:23:55.111Z,3.07
2022-11-28T05:28:22.480Z,2.97
2022-11-28T05:32:55.295Z,3.37
2022-11-28T05:37:22.023Z,3.10
2022-11-28T05:43:18.412Z,3.23
2022-11-28T05:46:07.908Z,3.30
2022-11-28T05:48:56.928Z,3.47
2022-11-28T05:51:44.880Z,3.33
2022-11-28T05:54:33.948Z,3.57
2022-11-28T05:57:21.113Z,3.00
2022-11-28T06:00:11.365Z,3.63
2022-11-28T06:03:01.492Z,3.33
2022-11-28T06:06:01.711Z,3.47
2022-11-28T06:09:26.797Z,3.20
2022-11-28T06:13:03.329Z,3.90
2022-11-28T06:16:20.704Z,3.57
2022-11-28T06:23:04.219Z,3.33
2022-11-28T06:26:28.248Z,3.43
2022-11-28T06:29:29.169Z,3.53
2022-11-28T06:32:31.403Z,3.77
2022-11-28T06:35:38.276Z,4.20
2022-11-28T06:38:47.355Z,3.80
2022-11-28T06:42:17.586Z,3.67
2022-11-28T06:45:30.237Z,3.40
2022-11-28T06:48:32.390Z,4.27
2022-11-28T06:54:59.988Z,3.83
2022-11-28T06:58:04.719Z,3.60
2022-11-28T07:01:17.607Z,3.40
2022-11-28T07:04:28.818Z,3.47
2022-11-28T07:07:50.243Z,3.33
2022-11-28T07:11:09.698Z,3.47
2022-11-28T07:14:05.936Z,3.47
2022-11-28T07:17:09.938Z,3.83
2022-11-28T07:20:15.587Z,3.47
2022-11-28T07:23:35.070Z,3.50
2022-11-28T07:26:32.510Z,3.03
2022-11-28T07:29:43.119Z,3.83
2022-11-28T07:32:52.711Z,3.17
2022-11-28T07:36:06.662Z,3.13
2022-11-28T07:39:15.698Z,3.33
2022-11-28T07:42:19.401Z,3.80
2022-11-28T07:46:17.303Z,2.97
2022-11-28T07:49:26.315Z,3.27
2022-11-28T07:53:25.582Z,3.23
2022-11-28T07:57:12.675Z,3.47
2022-11-28T08:03:29.274Z,2.80
2022-11-28T08:06:35.327Z,3.27
2022-11-28T08:09:55.333Z,3.23
2022-11-28T08:13:08.530Z,2.80
2022-11-28T08:16:31.139Z,2.90
2022-11-28T08:23:33.729Z,3.10
2022-11-28T08:26:50.722Z,3.23
2022-11-28T08:30:37.592Z,2.90
2022-11-28T08:38:11.985Z,2.97
2022-11-28T08:41:25.991Z,2.93
2022-11-28T08:45:03.003Z,3.43
2022-11-28T08:48:26.469Z,3.13
2022-11-28T08:58:55.518Z,3.17
2022-11-28T09:02:11.668Z,3.40
2022-11-28T09:06:11.463Z,3.40
2022-11-28T09:17:24.916Z,3.57
2022-11-28T09:24:46.304Z,3.37
2022-11-28T09:28:19.930Z,3.37
2022-11-28T09:32:18.024Z,3.80
2022-11-28T09:39:57.380Z,3.37
2022-11-28T09:43:42.754Z,3.17
2022-11-28T09:52:23.017Z,3.40
2022-11-28T09:56:12.474Z,3.37
2022-11-28T10:08:27.603Z,3.37
2022-11-28T10:12:18.465Z,3.77
2022-11-28T10:20:31.484Z,3.43
2022-11-28T10:24:17.031Z,3.47
2022-11-28T10:28:36.154Z,3.70
2022-11-28T10:32:44.064Z,3.60
2022-11-28T10:41:09.948Z,2.83
2022-11-28T10:49:16.924Z,3.77
2022-11-28T11:05:02.575Z,3.50
2022-11-28T11:13:20.965Z,3.30
2022-11-28T11:22:38.392Z,3.57
2022-11-28T11:25:29.092Z,3.27
2022-11-28T11:28:35.524Z,3.70
2022-11-28T11:31:26.571Z,3.83
2022-11-28T11:34:18.657Z,3.57
2022-11-28T11:37:30.233Z,3.43
2022-11-28T11:40:28.840Z,3.33
2022-11-28T11:43:27.830Z,3.40
2022-11-28T11:46:17.122Z,3.80
2022-11-28T11:49:03.785Z,3.77
2022-11-28T11:51:57.986Z,3.87
2022-11-28T11:54:59.250Z,3.72
2022-11-28T11:57:53.711Z,3.33
2022-11-28T12:00:42.152Z,3.47
2022-11-28T12:03:38.949Z,3.57
2022-11-28T12:06:31.526Z,3.43
2022-11-28T12:09:28.834Z,3.77
2022-11-28T12:12:23.437Z,3.58
2022-11-28T12:15:21.970Z,3.15
2022-11-28T12:18:27.695Z,3.57
2022-11-28T12:21:19.209Z,3.37
2022-11-28T12:24:13.175Z,3.37
2022-11-28T12:27:10.748Z,3.08
2022-11-28T12:30:22.387Z,3.42
2022-11-28T12:33:30.206Z,3.43
2022-11-28T12:36:27.836Z,4.17
2022-11-28T12:39:22.807Z,3.95
2022-11-28T12:42:30.413Z,3.40
2022-11-28T12:45:43.808Z,4.00
2022-11-28T12:48:53.604Z,3.50
2022-11-28T12:51:58.358Z,3.35
2022-11-28T12:55:12.452Z,3.57
2022-11-28T12:58:10.286Z,3.23
2022-11-28T13:01:14.952Z,3.78
2022-11-28T13:04:15.469Z,3.85
2022-11-28T13:07:13.893Z,3.30
2022-11-28T13:10:16.126Z,3.70
2022-11-28T13:13:09.868Z,3.88
2022-11-28T13:16:13.086Z,3.93
2022-11-28T13:19:12.001Z,3.43
2022-11-28T13:22:11.763Z,3.70
2022-11-28T13:25:10.793Z,3.25
2022-11-28T13:28:08.843Z,3.27
2022-11-28T13:31:06.769Z,3.40
2022-11-28T13:33:55.626Z,3.67
2022-11-28T13:40:08.889Z,3.47
2022-11-28T13:43:07.678Z,3.63
2022-11-28T13:45:55.977Z,3.85
2022-11-28T13:49:15.564Z,3.53
2022-11-28T13:52:42.957Z,3.63
2022-11-28T13:55:44.601Z,3.55
2022-11-28T13:58:42.427Z,3.83
2022-11-28T14:01:31.475Z,3.20
2022-11-28T14:04:20.356Z,4.10
2022-11-28T14:07:08.736Z,3.87
2022-11-28T14:10:16.227Z,3.90
2022-11-28T14:13:23.989Z,4.13
2022-11-28T14:16:27.048Z,3.63
2022-11-28T14:19:29.516Z,4.47
2022-11-28T14:22:34.640Z,4.50
2022-11-28T14:25:28.553Z,3.97
2022-11-28T14:28:25.130Z,4.07
2022-11-28T14:31:31.684Z,4.78
2022-11-28T14:34:42.593Z,4.07
2022-11-28T14:37:57.562Z,4.17
2022-11-28T14:41:11.757Z,4.20
2022-11-28T14:44:50.630Z,3.95
2022-11-28T14:47:42.433Z,4.60
2022-11-28T14:50:59.345Z,3.97
2022-11-28T14:53:50.576Z,4.57
2022-11-28T14:56:37.212Z,4.90
2022-11-28T14:59:33.864Z,4.23
2022-11-28T15:03:02.924Z,4.43
2022-11-28T15:05:53.317Z,4.83
2022-11-28T15:09:03.468Z,5.05
2022-11-28T15:12:12.336Z,4.37
2022-11-28T15:14:59.403Z,5.00
2022-11-28T15:17:53.470Z,4.40
2022-11-28T15:20:48.415Z,4.22
2022-11-28T15:23:38.670Z,4.60
2022-11-28T15:26:30.923Z,4.57
2022-11-28T15:29:22.489Z,4.53
2022-11-28T15:32:16.401Z,4.50
2022-11-28T15:35:12.542Z,4.47
2022-11-28T15:38:00.227Z,4.68
2022-11-28T15:40:52.564Z,4.75
2022-11-28T15:43:44.901Z,4.00
2022-11-28T15:46:35.118Z,3.70
2022-11-28T15:49:30.205Z,4.73
2022-11-28T15:52:19.085Z,4.32
2022-11-28T15:55:17.176Z,3.87
2022-11-28T15:58:23.335Z,4.00
2022-11-28T16:01:18.546Z,4.33
2022-11-28T16:04:11.984Z,3.97
2022-11-28T16:07:01.993Z,3.83
2022-11-28T16:10:03.476Z,4.10
2022-11-28T16:12:50.684Z,4.33
2022-11-28T16:15:38.835Z,4.50
2022-11-28T16:18:28.564Z,3.97
2022-11-28T16:21:15.704Z,4.03
2022-11-28T16:24:04.147Z,3.83
2022-11-28T16:27:01.079Z,4.27
2022-11-28T16:29:50.368Z,3.85
2022-11-28T16:32:40.129Z,4.20
2022-11-28T16:35:31.940Z,3.72
2022-11-28T16:38:25.446Z,4.40
2022-11-28T16:41:23.958Z,4.23
2022-11-28T16:44:17.918Z,4.03
2022-11-28T16:47:08.747Z,3.93
2022-11-28T16:50:24.717Z,4.00
2022-11-28T16:53:44.795Z,4.17
2022-11-28T16:56:44.935Z,4.20
2022-11-28T16:59:32.819Z,4.20
2022-11-28T17:02:23.144Z,4.13
2022-11-28T17:05:10.855Z,4.25
2022-11-28T17:07:57.654Z,4.47
2022-11-28T17:10:44.209Z,4.18
2022-11-28T17:13:31.269Z,4.10
2022-11-28T17:16:23.203Z,4.38
2022-11-28T17:19:10.034Z,4.30
2022-11-28T17:22:01.195Z,4.38
2022-11-28T17:24:49.575Z,3.57
2022-11-28T17:27:36.444Z,4.40
2022-11-28T17:30:23.706Z,4.15
2022-11-28T17:33:16.400Z,4.10
2022-11-28T17:36:04.718Z,4.60
2022-11-28T17:38:51.299Z,4.30
2022-11-28T17:41:38.042Z,3.80
2022-11-28T17:44:27.443Z,4.20
2022-11-28T17:47:14.081Z,4.18
2022-11-28T17:50:01.878Z,4.23
2022-11-28T17:52:48.674Z,4.95
2022-11-28T17:55:35.078Z,4.50
2022-11-28T17:58:24.346Z,4.57
2022-11-28T18:01:12.581Z,4.57
2022-11-28T18:03:59.828Z,4.72
2022-11-28T18:06:48.759Z,4.55
2022-11-28T18:09:40.733Z,4.85
2022-11-28T18:12:27.670Z,4.50
2022-11-28T18:15:14.320Z,4.13
2022-11-28T18:18:01.175Z,4.70
2022-11-28T18:20:48.233Z,5.10
2022-11-28T18:23:38.456Z,4.77
2022-11-28T18:26:27.029Z,4.82
2022-11-28T18:29:13.917Z,4.85
2022-11-28T18:32:00.699Z,4.43
2022-11-28T18:34:48.338Z,4.70
2022-11-28T18:37:35.120Z,4.47
2022-11-28T18:40:23.491Z,4.70
2022-11-28T18:43:10.403Z,4.77
2022-11-28T18:45:56.904Z,4.90
2022-11-28T18:48:46.521Z,4.67
2022-11-28T18:51:35.515Z,4.73
2022-11-28T18:54:22.187Z,4.95
2022-11-28T18:57:10.480Z,4.60
2022-11-28T18:59:57.547Z,4.30
2022-11-28T19:02:44.586Z,4.90
2022-11-28T19:05:36.400Z,4.88
2022-11-28T19:08:25.759Z,5.30
2022-11-28T19:11:15.562Z,4.87
2022-11-28T19:14:04.092Z,5.00
2022-11-28T19:16:53.539Z,5.20
2022-11-28T19:19:41.321Z,6.00
2022-11-28T19:22:31.469Z,5.17
2022-11-28T19:25:18.370Z,5.20
2022-11-28T19:28:06.043Z,4.83
2022-11-28T19:30:54.186Z,5.68
2022-11-28T19:33:40.655Z,5.22
2022-11-28T19:36:28.699Z,5.60
2022-11-28T19:39:18.627Z,5.00
2022-11-28T19:42:05.644Z,5.18
2022-11-28T19:44:52.268Z,4.80
2022-11-28T19:47:40.425Z,4.60
2022-11-28T19:50:27.013Z,4.93
2022-11-28T19:53:13.406Z,4.60
2022-11-28T19:56:04.805Z,4.90
2022-11-28T19:58:51.788Z,4.78
2022-11-28T20:01:39.957Z,4.82
2022-11-28T20:04:27.855Z,4.72
2022-11-28T20:07:14.737Z,4.57
2022-11-28T20:10:01.514Z,4.83
2022-11-28T20:12:48.484Z,4.93
2022-11-28T20:15:36.462Z,5.27
2022-11-28T20:18:22.989Z,4.93
2022-11-28T20:21:15.449Z,4.10
2022-11-28T20:24:08.131Z,4.43
2022-11-28T20:26:56.775Z,4.50
2022-11-28T20:29:43.763Z,4.70
2022-11-28T20:32:31.117Z,5.23
2022-11-28T20:35:19.061Z,4.63
2022-11-28T20:38:07.173Z,4.77
2022-11-28T20:41:01.842Z,4.80
2022-11-28T20:43:49.408Z,4.47
2022-11-28T20:46:54.384Z,4.83
2022-11-28T20:49:41.309Z,4.83
2022-11-28T20:52:28.138Z,4.23
2022-11-28T20:55:17.642Z,4.60
2022-11-28T20:58:04.321Z,4.77
2022-11-28T21:00:51.174Z,4.93
2022-11-28T21:03:37.800Z,4.88
2022-11-28T21:06:24.306Z,5.03
2022-11-28T21:09:12.640Z,4.53
2022-11-28T21:12:00.553Z,4.32
2022-11-28T21:14:47.074Z,4.47
2022-11-28T21:17:34.123Z,5.03
2022-11-28T21:20:20.968Z,5.07
2022-11-28T21:23:07.843Z,5.20
2022-11-28T21:25:54.486Z,4.65
2022-11-28T21:28:44.739Z,4.93
2022-11-28T21:31:34.637Z,4.53
2022-11-28T21:34:22.283Z,5.10
2022-11-28T21:37:08.877Z,4.75
2022-11-28T21:39:55.801Z,4.67
2022-11-28T21:42:42.561Z,4.97
2022-11-28T21:45:30.424Z,5.40
2022-11-28T21:48:17.127Z,5.13
2022-11-28T21:51:05.514Z,5.20
2022-11-28T21:53:52.698Z,5.28
2022-11-28T21:56:39.596Z,5.10
2022-11-28T21:59:26.319Z,4.90
2022-11-28T22:02:16.157Z,5.17
2022-11-28T22:05:02.617Z,4.82
2022-11-28T22:07:49.347Z,5.60
2022-11-28T22:10:38.145Z,5.18
2022-11-28T22:13:24.647Z,4.65
2022-11-28T22:16:14.863Z,5.27
2022-11-28T22:19:02.844Z,4.97
2022-11-28T22:21:52.417Z,5.10
2022-11-28T22:24:41.186Z,5.50
2022-11-28T22:27:32.791Z,5.82
2022-11-28T22:30:19.448Z,4.78
2022-11-28T22:33:06.066Z,5.43
2022-11-28T22:35:53.835Z,4.77
2022-11-28T22:38:41.324Z,4.57
2022-11-28T22:41:29.790Z,4.72
2022-11-28T22:44:16.590Z,4.97
2022-11-28T22:47:03.361Z,5.28
2022-11-28T22:49:49.844Z,5.50
2022-11-28T22:52:38.223Z,4.72
2022-11-28T22:55:24.764Z,5.00
2022-11-28T22:58:11.600Z,5.10
2022-11-28T23:00:58.349Z,5.13
2022-11-28T23:03:45.916Z,5.80
2022-11-28T23:06:35.281Z,4.95
2022-11-28T23:09:23.299Z,5.82
2022-11-28T23:12:09.976Z,5.35
2022-11-28T23:14:56.575Z,5.13
2022-11-28T23:17:43.208Z,5.20
2022-11-28T23:20:29.916Z,5.22
2022-11-28T23:23:16.301Z,5.00
2022-11-28T23:26:10.147Z,5.00
2022-11-28T23:28:59.683Z,4.97
2022-11-28T23:31:48.045Z,4.93
2022-11-28T23:34:34.521Z,5.18
2022-11-28T23:37:21.052Z,4.65
2022-11-28T23:40:09.477Z,4.38
2022-11-28T23:42:57.163Z,5.07
2022-11-28T23:45:43.913Z,5.15
2022-11-28T23:48:30.727Z,5.15
2022-11-28T23:51:22.292Z,5.47
2022-11-28T23:54:10.428Z,5.00
2022-11-28T23:56:56.788Z,5.53
2022-11-28T23:59:44.717Z,4.93
